createdAt,value
2022-12-04T00:00:54.323Z,1019.2
2022-12-04T00:03:54.531Z,1019.2
2022-12-04T00:06:58.640Z,1019.1
2022-12-04T00:09:55.313Z,1019.1
2022-12-04T00:12:55.204Z,1019.1
2022-12-04T00:16:05.582Z,1019.1
2022-12-04T00:18:55.696Z,1019.1
2022-12-04T00:21:50.923Z,1019.1
2022-12-04T00:24:51.167Z,1019.1
2022-12-04T00:27:56.361Z,1019.2
2022-12-04T00:30:51.637Z,1019.2
2022-12-04T00:33:51.812Z,1019.2
2022-12-04T00:36:52.094Z,1019.2
2022-12-04T00:39:52.496Z,1019.2
2022-12-04T00:42:52.535Z,1019.2
2022-12-04T00:45:52.827Z,1019.2
2022-12-04T00:48:52.989Z,1019.2
2022-12-04T00:51:53.205Z,1019.2
2022-12-04T00:54:53.422Z,1019.2
2022-12-04T00:57:57.121Z,1019.2
2022-12-04T01:00:53.978Z,1019.2
2022-12-04T01:03:54.147Z,1019.2
2022-12-04T01:06:54.372Z,1019.2
2022-12-04T01:09:54.722Z,1019.1
2022-12-04T01:12:54.839Z,1019.1
2022-12-04T01:15:55.061Z,1019.1
2022-12-04T01:18:55.334Z,1019.1
2022-12-04T01:21:55.503Z,1019.1
2022-12-04T01:24:50.752Z,1019.1
2022-12-04T01:27:51.000Z,1019.1
2022-12-04T01:30:56.225Z,1019.1
2022-12-04T01:33:51.425Z,1019.1
2022-12-04T01:36:51.701Z,1019.1
2022-12-04T01:39:52.193Z,1019.1
2022-12-04T01:42:52.118Z,1019.1
2022-12-04T01:45:52.396Z,1019.1
2022-12-04T01:48:52.608Z,1019.1
2022-12-04T01:51:52.813Z,1019.1
2022-12-04T01:54:53.077Z,1019
2022-12-04T01:57:53.303Z,1019
2022-12-04T02:00:59.126Z,1019
2022-12-04T02:03:53.763Z,1019
2022-12-04T02:06:53.988Z,1019
2022-12-04T02:09:54.582Z,1019
2022-12-04T02:12:54.465Z,1019
2022-12-04T02:15:54.661Z,1019
2022-12-04T02:18:54.899Z,1019
2022-12-04T02:21:55.149Z,1019
2022-12-04T02:24:55.355Z,1019
2022-12-04T02:27:50.617Z,1019
2022-12-04T02:30:56.028Z,1018.9
2022-12-04T02:33:56.080Z,1018.9
2022-12-04T02:36:51.314Z,1018.9
2022-12-04T02:39:51.520Z,1018.9
2022-12-04T02:42:51.780Z,1018.8
2022-12-04T02:45:52.037Z,1018.8
2022-12-04T02:48:52.249Z,1018.8
2022-12-04T02:51:52.439Z,1018.8
2022-12-04T02:54:52.706Z,1018.8
2022-12-04T02:57:52.889Z,1018.8
2022-12-04T03:00:53.263Z,1018.8
2022-12-04T03:03:53.404Z,1018.8
2022-12-04T03:06:58.623Z,1018.8
2022-12-04T03:09:54.100Z,1018.8
2022-12-04T03:12:54.070Z,1018.8
2022-12-04T03:15:54.299Z,1018.8
2022-12-04T03:18:54.535Z,1018.8
2022-12-04T03:21:54.761Z,1018.8
2022-12-04T03:24:55.023Z,1018.8
2022-12-04T03:27:56.587Z,1018.8
2022-12-04T03:30:55.543Z,1018.8
2022-12-04T03:33:50.709Z,1018.8
2022-12-04T03:36:50.917Z,1018.8
2022-12-04T03:39:51.167Z,1018.8
2022-12-04T03:42:51.399Z,1018.8
2022-12-04T03:45:51.676Z,1018.8
2022-12-04T03:48:51.896Z,1018.8
2022-12-04T03:51:52.071Z,1018.9
2022-12-04T03:54:52.334Z,1018.9
2022-12-04T03:57:52.533Z,1018.9
2022-12-04T04:00:52.786Z,1018.9
2022-12-04T04:03:52.992Z,1018.9
2022-12-04T04:06:53.234Z,1018.9
2022-12-04T04:09:53.861Z,1018.8
2022-12-04T04:12:53.695Z,1018.8
2022-12-04T04:15:53.951Z,1018.8
2022-12-04T04:18:54.165Z,1018.8
2022-12-04T04:21:59.396Z,1018.8
2022-12-04T04:24:54.643Z,1018.7
2022-12-04T04:27:54.881Z,1018.7
2022-12-04T04:30:55.192Z,1018.7
2022-12-04T04:33:55.308Z,1018.7
2022-12-04T04:36:55.569Z,1018.7
2022-12-04T04:39:55.909Z,1018.7
2022-12-04T04:42:56.026Z,1018.7
2022-12-04T04:45:51.261Z,1018.6
2022-12-04T04:48:51.462Z,1018.6
2022-12-04T04:51:51.722Z,1018.6
2022-12-04T04:54:51.931Z,1018.7
2022-12-04T04:57:52.191Z,1018.7
2022-12-04T05:00:52.401Z,1018.7
2022-12-04T05:03:52.657Z,1018.7
2022-12-04T05:06:52.922Z,1018.7
2022-12-04T05:09:53.176Z,1018.7
2022-12-04T05:12:53.374Z,1018.7
2022-12-04T05:15:53.577Z,1018.8
2022-12-04T05:18:53.820Z,1018.8
2022-12-04T05:21:54.002Z,1018.8
2022-12-04T05:24:54.245Z,1018.8
2022-12-04T05:27:54.506Z,1018.8
2022-12-04T05:30:54.772Z,1018.8
2022-12-04T05:33:54.968Z,1018.8
2022-12-04T05:36:55.151Z,1018.8
2022-12-04T05:39:55.780Z,1018.8
2022-12-04T05:42:55.669Z,1018.8
2022-12-04T05:45:50.859Z,1018.8
2022-12-04T05:48:51.142Z,1018.8
2022-12-04T05:51:51.316Z,1018.8
2022-12-04T05:54:51.586Z,1018.8
2022-12-04T05:57:51.802Z,1018.8
2022-12-04T06:00:52.031Z,1018.8
2022-12-04T06:03:52.454Z,1018.8
2022-12-04T06:06:52.476Z,1018.8
2022-12-04T06:09:52.903Z,1018.8
2022-12-04T06:12:52.977Z,1018.8
2022-12-04T06:15:53.196Z,1018.8
2022-12-04T06:18:53.453Z,1018.8
2022-12-04T06:21:53.620Z,1018.8
2022-12-04T06:24:53.905Z,1018.8
2022-12-04T06:27:54.067Z,1018.8
2022-12-04T06:30:54.377Z,1018.8
2022-12-04T06:33:54.545Z,1018.8
2022-12-04T06:36:54.810Z,1018.9
2022-12-04T06:39:55.413Z,1018.9
2022-12-04T06:42:55.227Z,1018.9
2022-12-04T06:45:55.518Z,1019
2022-12-04T06:48:55.707Z,1019
2022-12-04T06:51:50.938Z,1019
2022-12-04T06:54:51.143Z,1019
2022-12-04T06:57:51.420Z,1019
2022-12-04T07:00:51.720Z,1019
2022-12-04T07:03:52.035Z,1019
2022-12-04T07:06:52.075Z,1019
2022-12-04T07:09:52.438Z,1019
2022-12-04T07:12:52.543Z,1019
2022-12-04T07:15:52.797Z,1019
2022-12-04T07:18:52.997Z,1019
2022-12-04T07:21:53.233Z,1019
2022-12-04T07:24:53.442Z,1019
2022-12-04T07:27:53.693Z,1019
2022-12-04T07:30:53.944Z,1019
2022-12-04T07:33:54.148Z,1019
2022-12-04T07:36:54.401Z,1019.1
2022-12-04T07:39:54.865Z,1019.1
2022-12-04T07:42:54.914Z,1019.1
2022-12-04T07:45:55.128Z,1019.1
2022-12-04T07:48:55.299Z,1019.1
2022-12-04T07:51:55.544Z,1019.1
2022-12-04T07:54:50.764Z,1019.1
2022-12-04T07:57:55.995Z,1019.1
2022-12-04T08:00:51.245Z,1019.1
2022-12-04T08:03:56.479Z,1019.1
2022-12-04T08:06:51.672Z,1019.1
2022-12-04T08:09:51.937Z,1019.1
2022-12-04T08:12:52.312Z,1019.1
2022-12-04T08:15:52.396Z,1019
2022-12-04T08:18:52.623Z,1019
2022-12-04T08:21:52.825Z,1019
2022-12-04T08:24:53.081Z,1019
2022-12-04T08:27:53.258Z,1019
2022-12-04T08:30:53.635Z,1019
2022-12-04T08:33:53.749Z,1019
2022-12-04T08:36:54.091Z,1019
2022-12-04T08:39:54.661Z,1019
2022-12-04T08:42:54.454Z,1019.1
2022-12-04T08:45:54.762Z,1019.1
2022-12-04T08:48:54.940Z,1019.1
2022-12-04T08:51:55.136Z,1019.1
2022-12-04T08:54:55.414Z,1019.1
2022-12-04T08:57:50.594Z,1019.1
2022-12-04T09:00:55.878Z,1019.1
2022-12-04T09:03:56.163Z,1019.1
2022-12-04T09:06:51.330Z,1019.1
2022-12-04T09:09:51.525Z,1019.1
2022-12-04T09:12:56.824Z,1019.1
2022-12-04T09:15:52.065Z,1019.1
2022-12-04T09:18:52.249Z,1019.1
2022-12-04T09:21:52.482Z,1019.1
2022-12-04T09:24:52.715Z,1019.1
2022-12-04T09:27:52.947Z,1019.1
2022-12-04T09:30:53.179Z,1019.1
2022-12-04T09:33:53.390Z,1019.1
2022-12-04T09:36:53.646Z,1019.1
2022-12-04T09:39:54.227Z,1019.1
2022-12-04T09:42:54.120Z,1019.1
2022-12-04T09:45:54.426Z,1019
2022-12-04T09:48:54.556Z,1019
2022-12-04T09:51:54.754Z,1019
2022-12-04T09:54:55.017Z,1019
2022-12-04T09:58:01.385Z,1019
2022-12-04T10:00:55.451Z,1019
2022-12-04T10:03:50.972Z,1019
2022-12-04T10:06:55.913Z,1019
2022-12-04T10:09:51.171Z,1019
2022-12-04T10:12:51.384Z,1019
2022-12-04T10:15:51.703Z,1019
2022-12-04T10:18:51.837Z,1019
2022-12-04T10:21:52.091Z,1019
2022-12-04T10:24:52.321Z,1019
2022-12-04T10:27:52.527Z,1019
2022-12-04T10:30:52.857Z,1018.9
2022-12-04T10:33:53.000Z,1018.9
2022-12-04T10:36:53.206Z,1018.9
2022-12-04T10:39:53.814Z,1018.8
2022-12-04T10:42:53.733Z,1018.8
2022-12-04T10:45:53.914Z,1018.8
2022-12-04T10:48:54.134Z,1018.8
2022-12-04T10:51:54.373Z,1018.7
2022-12-04T10:54:54.572Z,1018.7
2022-12-04T10:57:54.796Z,1018.7
2022-12-04T11:00:55.045Z,1018.7
2022-12-04T11:03:55.244Z,1018.6
2022-12-04T11:06:55.486Z,1018.6
2022-12-04T11:09:50.703Z,1018.6
2022-12-04T11:12:55.972Z,1018.6
2022-12-04T11:15:51.284Z,1018.6
2022-12-04T11:18:51.430Z,1018.6
2022-12-04T11:21:51.737Z,1018.5
2022-12-04T11:24:52.033Z,1018.5
2022-12-04T11:27:52.245Z,1018.5
2022-12-04T11:30:57.565Z,1018.5
2022-12-04T11:33:58.521Z,1018.4
2022-12-04T11:36:52.963Z,1018.4
2022-12-04T11:39:53.817Z,1018.4
2022-12-04T11:42:53.387Z,1018.4
2022-12-04T11:45:53.644Z,1018.3
2022-12-04T11:48:53.845Z,1018.3
2022-12-04T11:51:54.122Z,1018.3
2022-12-04T11:54:54.304Z,1018.2
2022-12-04T11:57:54.550Z,1018.2
2022-12-04T12:00:54.777Z,1018.2
2022-12-04T12:03:55.012Z,1018.1
2022-12-04T12:06:35.458Z,1018.1
2022-12-04T12:09:28.130Z,1018.1
2022-12-04T12:12:50.163Z,1018.1
2022-12-04T12:15:55.412Z,1018.1
2022-12-04T12:18:55.703Z,1018.1
2022-12-04T12:21:55.869Z,1018.1
2022-12-04T12:24:56.955Z,1018.1
2022-12-04T12:27:56.337Z,1018.1
2022-12-04T12:30:51.624Z,1018.1
2022-12-04T12:33:51.797Z,1018.1
2022-12-04T12:37:01.023Z,1018.1
2022-12-04T12:39:52.247Z,1018.1
2022-12-04T12:42:58.961Z,1018.1
2022-12-04T12:45:52.989Z,1018
2022-12-04T12:48:58.848Z,1018
2022-12-04T12:51:53.220Z,1018
2022-12-04T12:54:53.533Z,1018
2022-12-04T12:57:53.705Z,1018
2022-12-04T13:00:59.093Z,1017.9
2022-12-04T13:03:54.147Z,1017.9
2022-12-04T13:06:54.482Z,1017.9
2022-12-04T13:09:55.589Z,1017.9
2022-12-04T13:12:54.832Z,1017.9
2022-12-04T13:15:55.171Z,1017.8
2022-12-04T13:18:55.307Z,1017.8
2022-12-04T13:21:55.578Z,1017.8
2022-12-04T13:24:50.746Z,1017.7
2022-12-04T13:27:56.013Z,1017.7
2022-12-04T13:30:56.203Z,1017.7
2022-12-04T13:33:56.488Z,1017.6
2022-12-04T13:36:51.665Z,1017.6
2022-12-04T13:39:51.960Z,1017.6
2022-12-04T13:42:52.119Z,1017.5
2022-12-04T13:45:52.497Z,1017.5
2022-12-04T13:48:52.607Z,1017.5
2022-12-04T13:51:52.875Z,1017.5
2022-12-04T13:54:53.597Z,1017.5
2022-12-04T13:57:53.281Z,1017.5
2022-12-04T14:00:53.717Z,1017.4
2022-12-04T14:03:53.820Z,1017.4
2022-12-04T14:06:53.975Z,1017.4
2022-12-04T14:09:54.244Z,1017.3
2022-12-04T14:12:54.488Z,1017.3
2022-12-04T14:15:54.671Z,1017.3
2022-12-04T14:18:54.959Z,1017.3
2022-12-04T14:21:55.146Z,1017.3
2022-12-04T14:24:56.200Z,1017.3
2022-12-04T14:27:55.606Z,1017.3
2022-12-04T14:30:56.020Z,1017.3
2022-12-04T14:33:56.102Z,1017.4
2022-12-04T14:36:56.387Z,1017.4
2022-12-04T14:39:51.524Z,1017.4
2022-12-04T14:42:51.874Z,1017.4
2022-12-04T14:45:52.110Z,1017.5
2022-12-04T14:48:52.252Z,1017.5
2022-12-04T14:51:52.503Z,1017.5
2022-12-04T14:54:52.764Z,1017.5
2022-12-04T14:57:52.990Z,1017.5
2022-12-04T15:00:53.151Z,1017.5
2022-12-04T15:03:53.597Z,1017.5
2022-12-04T15:07:00.860Z,1017.5
2022-12-04T15:09:53.824Z,1017.5
2022-12-04T15:12:54.117Z,1017.4
2022-12-04T15:15:54.511Z,1017.4
2022-12-04T15:18:54.525Z,1017.5
2022-12-04T15:21:54.748Z,1017.5
2022-12-04T15:24:56.270Z,1017.5
2022-12-04T15:27:55.292Z,1017.5
2022-12-04T15:31:00.776Z,1017.4
2022-12-04T15:33:55.735Z,1017.4
2022-12-04T15:36:55.970Z,1017.4
2022-12-04T15:39:56.731Z,1017.4
2022-12-04T15:42:51.432Z,1017.4
2022-12-04T15:45:51.632Z,1017.4
2022-12-04T15:48:51.882Z,1017.3
2022-12-04T15:51:52.073Z,1017.3
2022-12-04T15:54:52.199Z,1017.3
2022-12-04T15:57:52.444Z,1017.3
2022-12-04T16:00:52.682Z,1017.3
2022-12-04T16:03:52.987Z,1017.3
2022-12-04T16:06:53.147Z,1017.3
2022-12-04T16:09:55.745Z,1017.3
2022-12-04T16:12:53.601Z,1017.3
2022-12-04T16:15:54.024Z,1017.2
2022-12-04T16:18:54.183Z,1017.2
2022-12-04T16:21:54.384Z,1017.2
2022-12-04T16:24:55.488Z,1017.2
2022-12-04T16:27:54.867Z,1017.1
2022-12-04T16:30:55.384Z,1017.1
2022-12-04T16:33:55.363Z,1017.1
2022-12-04T16:36:55.602Z,1017.1
2022-12-04T16:39:50.766Z,1017
2022-12-04T16:42:51.057Z,1017
2022-12-04T16:45:56.302Z,1017
2022-12-04T16:48:51.489Z,1017
2022-12-04T16:51:51.755Z,1017
2022-12-04T16:54:51.974Z,1017
2022-12-04T16:57:52.213Z,1017
2022-12-04T17:00:52.389Z,1017
2022-12-04T17:03:52.917Z,1017
2022-12-04T17:06:52.870Z,1017.1
2022-12-04T17:09:53.091Z,1017.1
2022-12-04T17:12:53.307Z,1017.1
2022-12-04T17:15:53.752Z,1017.1
2022-12-04T17:18:53.674Z,1017.2
2022-12-04T17:21:53.911Z,1017.2
2022-12-04T17:24:56.079Z,1017.2
2022-12-04T17:27:54.349Z,1017.3
2022-12-04T17:30:54.604Z,1017.3
2022-12-04T17:33:54.819Z,1017.3
2022-12-04T17:36:55.095Z,1017.3
2022-12-04T17:39:55.361Z,1017.3
2022-12-04T17:42:55.542Z,1017.4
2022-12-04T17:45:50.749Z,1017.4
2022-12-04T17:48:50.998Z,1017.4
2022-12-04T17:51:51.271Z,1017.4
2022-12-04T17:54:51.459Z,1017.4
2022-12-04T17:57:51.660Z,1017.4
2022-12-04T18:00:51.996Z,1017.5
2022-12-04T18:03:52.110Z,1017.5
2022-12-04T18:06:52.445Z,1017.5
2022-12-04T18:09:52.580Z,1017.5
2022-12-04T18:12:52.781Z,1017.5
2022-12-04T18:15:53.014Z,1017.5
2022-12-04T18:18:53.220Z,1017.5
2022-12-04T18:21:53.456Z,1017.5
2022-12-04T18:24:53.629Z,1017.5
2022-12-04T18:27:54.071Z,1017.5
2022-12-04T18:30:54.080Z,1017.5
2022-12-04T18:33:54.320Z,1017.5
2022-12-04T18:36:54.518Z,1017.5
2022-12-04T18:39:55.226Z,1017.5
2022-12-04T18:42:54.976Z,1017.5
2022-12-04T18:45:55.213Z,1017.5
2022-12-04T18:48:55.414Z,1017.5
2022-12-04T18:51:55.602Z,1017.5
2022-12-04T18:54:50.858Z,1017.6
2022-12-04T18:57:51.038Z,1017.6
2022-12-04T19:00:51.297Z,1017.6
2022-12-04T19:03:51.464Z,1017.7
2022-12-04T19:06:51.720Z,1017.7
2022-12-04T19:10:11.289Z,1017.7
2022-12-04T19:12:52.135Z,1017.8
2022-12-04T19:15:52.363Z,1017.8
2022-12-04T19:18:52.560Z,1017.8
2022-12-04T19:21:52.792Z,1017.8
2022-12-04T19:24:53.007Z,1017.8
2022-12-04T19:27:53.203Z,1017.8
2022-12-04T19:30:53.451Z,1017.8
2022-12-04T19:33:53.647Z,1017.8
2022-12-04T19:36:53.892Z,1017.8
2022-12-04T19:39:54.342Z,1017.8
2022-12-04T19:42:59.556Z,1017.8
2022-12-04T19:45:54.581Z,1017.8
2022-12-04T19:48:54.752Z,1017.8
2022-12-04T19:51:55.036Z,1017.7
2022-12-04T19:54:55.225Z,1017.8
2022-12-04T19:57:55.425Z,1017.8
2022-12-04T20:00:50.703Z,1017.8
2022-12-04T20:03:55.852Z,1017.8
2022-12-04T20:06:56.036Z,1017.8
2022-12-04T20:09:52.657Z,1017.8
2022-12-04T20:12:51.526Z,1017.7
2022-12-04T20:15:51.685Z,1017.7
2022-12-04T20:18:51.959Z,1017.7
2022-12-04T20:21:57.622Z,1017.7
2022-12-04T20:24:52.430Z,1017.6
2022-12-04T20:27:52.619Z,1017.6
2022-12-04T20:30:53.060Z,1017.6
2022-12-04T20:33:53.082Z,1017.6
2022-12-04T20:36:53.285Z,1017.6
2022-12-04T20:39:53.544Z,1017.5
2022-12-04T20:42:53.740Z,1017.5
2022-12-04T20:45:53.997Z,1017.5
2022-12-04T20:48:54.186Z,1017.5
2022-12-04T20:51:54.360Z,1017.4
2022-12-04T20:54:54.594Z,1017.4
2022-12-04T20:57:54.803Z,1017.4
2022-12-04T21:00:55.088Z,1017.3
2022-12-04T21:03:55.274Z,1017.3
2022-12-04T21:06:55.466Z,1017.3
2022-12-04T21:09:56.040Z,1017.3
2022-12-04T21:12:55.909Z,1017.3
2022-12-04T21:15:56.209Z,1017.3
2022-12-04T21:18:56.380Z,1017.3
2022-12-04T21:21:51.559Z,1017.3
2022-12-04T21:24:51.805Z,1017.3
2022-12-04T21:27:51.979Z,1017.3
2022-12-04T21:30:52.323Z,1017.2
2022-12-04T21:33:52.455Z,1017.2
2022-12-04T21:36:52.666Z,1017.2
2022-12-04T21:39:52.895Z,1017.1
2022-12-04T21:42:53.074Z,1017.1
2022-12-04T21:45:53.341Z,1017.1
2022-12-04T21:48:53.522Z,1017.1
2022-12-04T21:51:58.479Z,1017.1
2022-12-04T21:54:53.972Z,1017.1
2022-12-04T21:57:54.157Z,1017.1
2022-12-04T22:00:54.411Z,1017.1
2022-12-04T22:03:54.584Z,1017.1
2022-12-04T22:06:54.848Z,1017
2022-12-04T22:09:55.217Z,1017
2022-12-04T22:12:55.283Z,1017
2022-12-04T22:15:55.611Z,1017
2022-12-04T22:18:55.720Z,1017
2022-12-04T22:21:50.924Z,1017
2022-12-04T22:24:51.110Z,1017
2022-12-04T22:27:51.355Z,1017
2022-12-04T22:30:51.643Z,1017
2022-12-04T22:33:51.762Z,1017
2022-12-04T22:36:52.010Z,1017
2022-12-04T22:39:52.226Z,1017
2022-12-04T22:42:52.423Z,1016.9
2022-12-04T22:45:52.638Z,1016.9
2022-12-04T22:48:52.889Z,1016.9
2022-12-04T22:51:53.070Z,1016.8
2022-12-04T22:54:53.279Z,1016.8
2022-12-04T22:57:53.517Z,1016.8
2022-12-04T23:00:53.811Z,1016.8
2022-12-04T23:03:54.004Z,1016.8
2022-12-04T23:06:54.178Z,1016.7
2022-12-04T23:09:54.561Z,1016.7
2022-12-04T23:12:54.617Z,1016.7
2022-12-04T23:15:54.932Z,1016.7
2022-12-04T23:18:55.053Z,1016.7
2022-12-04T23:21:57.213Z,1016.7
2022-12-04T23:24:50.483Z,1016.7
2022-12-04T23:27:55.726Z,1016.7
2022-12-04T23:30:50.975Z,1016.6
2022-12-04T23:33:51.149Z,1016.6
2022-12-04T23:36:51.368Z,1016.6
2022-12-04T23:39:51.552Z,1016.6
2022-12-04T23:42:51.796Z,1016.6
2022-12-04T23:45:52.028Z,1016.6
2022-12-04T23:48:52.238Z,1016.7
2022-12-04T23:51:52.474Z,1016.7
2022-12-04T23:54:52.657Z,1016.7
2022-12-04T23:57:52.871Z,1016.6
